createdAt,value
2023-02-05T00:01:27.702Z,-1.80
2023-02-05T00:06:30.295Z,-1.97
2023-02-05T00:11:32.941Z,-2.08
2023-02-05T00:16:35.957Z,-2.21
2023-02-05T00:21:38.717Z,-2.13
2023-02-05T00:26:41.808Z,-1.90
2023-02-05T00:31:44.505Z,-1.93
2023-02-05T00:36:47.885Z,-1.87
2023-02-05T00:41:50.572Z,-1.94
2023-02-05T00:46:53.429Z,-2.02
2023-02-05T00:51:55.987Z,-2.02
2023-02-05T00:56:59.028Z,-2.21
2023-02-05T01:02:01.663Z,-2.10
2023-02-05T01:07:04.250Z,-2.02
2023-02-05T01:12:06.945Z,-2.15
2023-02-05T01:17:09.500Z,-2.17
2023-02-05T01:22:12.168Z,-2.05
2023-02-05T01:27:15.236Z,-2.22
2023-02-05T01:32:18.316Z,-2.23
2023-02-05T01:37:22.077Z,-2.33
2023-02-05T01:42:30.011Z,-2.32
2023-02-05T01:47:32.574Z,-2.49
2023-02-05T01:52:35.409Z,-2.35
2023-02-05T01:57:38.739Z,-2.36
2023-02-05T02:02:41.817Z,-2.52
2023-02-05T02:07:44.764Z,-2.32
2023-02-05T02:12:50.153Z,-2.66
2023-02-05T02:18:18.084Z,-2.44
2023-02-05T02:23:53.792Z,-2.55
2023-02-05T02:29:04.181Z,-2.23
2023-02-05T02:34:22.900Z,-2.32
2023-02-05T02:39:57.607Z,-2.28
2023-02-05T02:45:03.485Z,-2.07
2023-02-05T02:50:14.091Z,-2.17
2023-02-05T02:55:19.741Z,-2.06
2023-02-05T03:00:27.073Z,-2.12
2023-02-05T03:05:30.785Z,-1.92
2023-02-05T03:10:41.176Z,-1.98
2023-02-05T03:15:45.616Z,-2.06
2023-02-05T03:20:57.160Z,-1.99
2023-02-05T03:26:00.053Z,-2.10
2023-02-05T03:31:44.717Z,-2.19
2023-02-05T03:37:02.016Z,-2.30
2023-02-05T03:42:48.284Z,-2.20
2023-02-05T03:48:15.974Z,-2.27
2023-02-05T03:53:30.844Z,-2.56
2023-02-05T03:58:42.005Z,-2.49
2023-02-05T04:03:44.964Z,-2.47
2023-02-05T04:08:47.884Z,-2.47
2023-02-05T04:13:51.531Z,-2.42
2023-02-05T04:18:54.215Z,-2.60
2023-02-05T04:23:57.441Z,-2.69
2023-02-05T04:29:01.073Z,-2.88
2023-02-05T04:34:06.655Z,-2.95
2023-02-05T04:39:09.330Z,-3.29
2023-02-05T04:44:11.880Z,-3.13
2023-02-05T04:49:14.694Z,-3.16
2023-02-05T04:54:17.465Z,-3.33
2023-02-05T04:59:20.346Z,-3.33
2023-02-05T05:04:23.121Z,-3.29
2023-02-05T05:09:25.781Z,-3.38
2023-02-05T05:14:28.860Z,-3.31
2023-02-05T05:19:31.533Z,-3.27
2023-02-05T05:24:34.175Z,-3.31
2023-02-05T05:29:37.383Z,-3.55
2023-02-05T05:34:39.969Z,-3.41
2023-02-05T05:40:00.872Z,-3.45
2023-02-05T05:45:03.891Z,-3.43
2023-02-05T05:50:07.015Z,-3.40
2023-02-05T05:55:09.652Z,-3.36
2023-02-05T06:00:13.027Z,-3.36
2023-02-05T06:05:15.721Z,-3.35
2023-02-05T06:10:18.543Z,-3.26
2023-02-05T06:15:22.159Z,-3.30
2023-02-05T06:20:24.950Z,-3.13
2023-02-05T06:25:27.572Z,-3.12
2023-02-05T06:30:32.551Z,-3.04
2023-02-05T06:35:35.509Z,-3.03
2023-02-05T06:40:38.357Z,-2.96
2023-02-05T06:45:40.951Z,-2.78
2023-02-05T06:50:43.652Z,-2.82
2023-02-05T06:55:46.310Z,-2.85
2023-02-05T07:00:49.241Z,-2.81
2023-02-05T07:05:51.771Z,-2.79
2023-02-05T07:10:54.405Z,-2.82
2023-02-05T07:15:57.509Z,-2.95
2023-02-05T07:21:00.459Z,-3.01
2023-02-05T07:26:12.605Z,-2.96
2023-02-05T07:31:21.460Z,-2.90
2023-02-05T07:36:24.106Z,-2.85
2023-02-05T07:41:27.041Z,-2.62
2023-02-05T07:46:29.655Z,-2.54
2023-02-05T07:51:32.918Z,-2.40
2023-02-05T07:56:35.539Z,-2.41
2023-02-05T08:01:38.196Z,-2.43
2023-02-05T08:06:40.828Z,-2.40
2023-02-05T08:11:43.990Z,-2.55
2023-02-05T08:16:46.633Z,-2.36
2023-02-05T08:21:49.253Z,-2.16
2023-02-05T08:26:51.918Z,-1.91
2023-02-05T08:31:54.567Z,-1.74
2023-02-05T08:36:57.846Z,-1.44
2023-02-05T08:42:00.468Z,-1.14
2023-02-05T08:47:03.099Z,-0.76
2023-02-05T08:52:05.765Z,-0.89
2023-02-05T08:57:08.668Z,-0.98
2023-02-05T09:02:15.433Z,-0.92
2023-02-05T09:07:18.293Z,-0.83
2023-02-05T09:12:20.846Z,-0.59
2023-02-05T09:17:23.537Z,-0.58
2023-02-05T09:22:26.271Z,-0.42
2023-02-05T09:27:28.835Z,-0.53
2023-02-05T09:32:31.391Z,-0.41
2023-02-05T09:37:33.991Z,-0.59
2023-02-05T09:42:53.338Z,-0.85
2023-02-05T09:48:08.514Z,-1.03
2023-02-05T09:53:17.609Z,-1.17
2023-02-05T09:58:27.183Z,-1.45
2023-02-05T10:03:37.447Z,-1.52
2023-02-05T10:09:09.744Z,-1.44
2023-02-05T10:14:30.862Z,-1.25
2023-02-05T10:19:44.154Z,-1.28
2023-02-05T10:24:56.217Z,-1.16
2023-02-05T10:30:20.339Z,-0.90
2023-02-05T10:35:24.997Z,-0.76
2023-02-05T10:40:41.043Z,-0.87
2023-02-05T10:45:44.542Z,-0.43
2023-02-05T10:51:15.366Z,-0.55
2023-02-05T10:56:19.800Z,-0.64
2023-02-05T11:01:33.696Z,-0.60
2023-02-05T11:06:40.481Z,-0.33
2023-02-05T11:11:44.471Z,-0.09
2023-02-05T11:16:47.243Z,0.22
2023-02-05T11:21:57.368Z,0.13
2023-02-05T11:27:24.748Z,-0.19
2023-02-05T11:32:36.269Z,-0.67
2023-02-05T11:37:40.660Z,-0.96
2023-02-05T11:42:50.385Z,-1.08
2023-02-05T11:47:53.760Z,-1.09
2023-02-05T11:53:08.909Z,-1.29
2023-02-05T11:58:36.624Z,-1.17
2023-02-05T12:03:39.821Z,-1.51
2023-02-05T12:08:55.437Z,-1.39
2023-02-05T12:14:16.777Z,-1.27
2023-02-05T12:19:19.880Z,-1.38
2023-02-05T12:24:45.298Z,-1.36
2023-02-05T12:30:07.222Z,-1.36
2023-02-05T12:35:12.900Z,-1.22
2023-02-05T12:40:33.836Z,-1.43
2023-02-05T12:45:57.962Z,-1.63
2023-02-05T12:51:18.367Z,-1.91
2023-02-05T12:56:35.987Z,-1.71
2023-02-05T13:01:38.489Z,-1.75
2023-02-05T13:06:52.497Z,-1.75
2023-02-05T13:12:00.994Z,-1.81
2023-02-05T13:17:12.939Z,-1.65
2023-02-05T13:22:38.194Z,-1.71
2023-02-05T13:28:02.239Z,-1.85
2023-02-05T13:33:09.317Z,-2.04
2023-02-05T13:38:14.689Z,-2.05
2023-02-05T13:43:45.502Z,-2.08
2023-02-05T13:49:03.220Z,-2.05
2023-02-05T13:54:24.451Z,-2.02
2023-02-05T13:59:39.253Z,-2.01
2023-02-05T14:04:54.007Z,-2.11
2023-02-05T14:10:00.880Z,-2.20
2023-02-05T14:15:15.724Z,-2.12
2023-02-05T14:20:24.420Z,-2.18
2023-02-05T14:25:38.335Z,-2.13
2023-02-05T14:30:49.089Z,-2.12
2023-02-05T14:35:55.978Z,-2.11
2023-02-05T14:41:10.876Z,-2.09
2023-02-05T14:46:37.623Z,-2.04
2023-02-05T14:51:48.487Z,-2.32
2023-02-05T14:56:54.205Z,-2.17
2023-02-05T15:01:57.922Z,-2.40
2023-02-05T15:07:07.317Z,-2.41
2023-02-05T15:12:56.610Z,-2.49
2023-02-05T15:18:29.054Z,-2.50
2023-02-05T15:23:42.387Z,-2.49
2023-02-05T15:29:11.520Z,-2.58
2023-02-05T15:34:23.268Z,-2.54
2023-02-05T15:39:38.234Z,-2.42
2023-02-05T15:44:43.973Z,-2.21
2023-02-05T15:49:50.532Z,-2.25
2023-02-05T15:54:56.845Z,-2.15
2023-02-05T16:00:07.852Z,-2.27
2023-02-05T16:05:19.286Z,-2.40
2023-02-05T16:10:27.786Z,-2.76
2023-02-05T16:16:01.362Z,-2.46
2023-02-05T16:21:31.796Z,-2.45
2023-02-05T16:26:43.338Z,-2.41
2023-02-05T16:31:46.502Z,-2.44
2023-02-05T16:36:53.180Z,-2.48
2023-02-05T16:42:06.272Z,-2.45
2023-02-05T16:47:18.732Z,-2.43
2023-02-05T16:52:32.799Z,-2.55
2023-02-05T16:57:41.499Z,-2.56
2023-02-05T17:02:47.392Z,-2.31
2023-02-05T17:08:02.243Z,-2.55
2023-02-05T17:13:06.072Z,-2.52
2023-02-05T17:18:31.539Z,-2.35
2023-02-05T17:23:34.109Z,-2.12
2023-02-05T17:28:43.875Z,-2.28
2023-02-05T17:33:50.195Z,-2.36
2023-02-05T17:38:53.692Z,-2.45
2023-02-05T17:43:57.253Z,-2.36
2023-02-05T17:49:01.307Z,-2.40
2023-02-05T17:54:04.945Z,-2.57
2023-02-05T17:59:20.668Z,-2.45
2023-02-05T18:04:28.702Z,-2.52
2023-02-05T18:09:31.258Z,-2.39
2023-02-05T18:14:40.012Z,-2.39
2023-02-05T18:19:45.362Z,-2.37
2023-02-05T18:24:47.963Z,-2.43
2023-02-05T18:30:03.653Z,-2.60
2023-02-05T18:35:06.903Z,-2.69
2023-02-05T18:40:15.181Z,-2.55
2023-02-05T18:45:18.560Z,-2.57
2023-02-05T18:50:27.960Z,-2.93
2023-02-05T18:55:35.831Z,-2.98
2023-02-05T19:00:50.098Z,-3.05
2023-02-05T19:05:56.200Z,-3.23
2023-02-05T19:10:59.862Z,-3.35
2023-02-05T19:16:12.843Z,-3.25
2023-02-05T19:21:18.112Z,-3.22
2023-02-05T19:26:26.254Z,-3.31
2023-02-05T19:31:34.389Z,-3.20
2023-02-05T19:36:38.311Z,-3.38
2023-02-05T19:42:03.473Z,-3.38
2023-02-05T19:47:08.624Z,-3.38
2023-02-05T19:52:11.245Z,-3.28
2023-02-05T19:57:13.830Z,-3.42
2023-02-05T20:02:19.449Z,-3.41
2023-02-05T20:07:22.060Z,-3.53
2023-02-05T20:12:24.755Z,-3.63
2023-02-05T20:17:28.708Z,-3.56
2023-02-05T20:22:32.069Z,-3.53
2023-02-05T20:27:34.800Z,-3.66
2023-02-05T20:32:37.432Z,-3.81
2023-02-05T20:37:40.079Z,-3.94
2023-02-05T20:42:42.719Z,-3.92
2023-02-05T20:47:45.530Z,-3.79
2023-02-05T20:52:48.116Z,-3.90
2023-02-05T20:57:50.724Z,-3.91
2023-02-05T21:02:53.413Z,-3.70
2023-02-05T21:07:56.519Z,-3.69
2023-02-05T21:12:59.107Z,-3.66
2023-02-05T21:18:01.749Z,-3.64
2023-02-05T21:23:04.360Z,-3.70
2023-02-05T21:28:07.413Z,-3.91
2023-02-05T21:33:10.163Z,-3.99
2023-02-05T21:38:12.784Z,-4.07
2023-02-05T21:43:15.386Z,-4.06
2023-02-05T21:48:17.982Z,-4.04
2023-02-05T21:53:20.643Z,-3.99
2023-02-05T21:58:23.215Z,-4.19
2023-02-05T22:03:25.817Z,-4.29
2023-02-05T22:08:28.335Z,-4.21
2023-02-05T22:13:33.255Z,-4.17
2023-02-05T22:19:01.750Z,-4.17
2023-02-05T22:24:05.795Z,-4.30
2023-02-05T22:29:12.838Z,-4.07
2023-02-05T22:34:15.378Z,-4.18
2023-02-05T22:39:17.990Z,-4.10
2023-02-05T22:44:20.549Z,-4.13
2023-02-05T22:49:23.097Z,-4.35
2023-02-05T22:54:25.739Z,-4.32
2023-02-05T22:59:29.503Z,-4.36
2023-02-05T23:04:32.021Z,-4.18
2023-02-05T23:09:34.636Z,-4.27
2023-02-05T23:14:37.185Z,-4.39
2023-02-05T23:19:39.735Z,-4.66
2023-02-05T23:24:42.440Z,-4.44
2023-02-05T23:29:45.006Z,-4.45
2023-02-05T23:34:47.609Z,-4.49
2023-02-05T23:39:50.291Z,-4.60
2023-02-05T23:44:52.806Z,-4.62
2023-02-05T23:49:55.327Z,-4.63
2023-02-05T23:54:57.926Z,-4.74
